sensor_id;sensor_type;location;lat;lon;timestamp;P1;durP1;ratioP1;P2;durP2;ratioP2
19509;SDS011;9896;42.486;26.506;2023-02-11T00:01:24;19.70;;;8.97;;
19509;SDS011;9896;42.486;26.506;2023-02-11T00:03:51;18.13;;;8.37;;
19509;SDS011;9896;42.486;26.506;2023-02-11T00:06:17;18.33;;;8.93;;
19509;SDS011;9896;42.486;26.506;2023-02-11T00:08:43;12.83;;;7.93;;
19509;SDS011;9896;42.486;26.506;2023-02-11T00:11:11;12.50;;;6.10;;
19509;SDS011;9896;42.486;26.506;2023-02-11T00:13:39;19.87;;;8.67;;
19509;SDS011;9896;42.486;26.506;2023-02-11T00:16:05;9.30;;;5.63;;
19509;SDS011;9896;42.486;26.506;2023-02-11T00:18:32;21.70;;;9.53;;
19509;SDS011;9896;42.486;26.506;2023-02-11T00:20:58;12.40;;;7.77;;
19509;SDS011;9896;42.486;26.506;2023-02-11T00:23:23;20.23;;;9.67;;
19509;SDS011;9896;42.486;26.506;2023-02-11T00:25:49;20.97;;;9.50;;
19509;SDS011;9896;42.486;26.506;2023-02-11T00:28:14;24.60;;;10.47;;
19509;SDS011;9896;42.486;26.506;2023-02-11T00:30:40;21.10;;;9.13;;
19509;SDS011;9896;42.486;26.506;2023-02-11T00:33:05;21.87;;;9.53;;
19509;SDS011;9896;42.486;26.506;2023-02-11T00:35:31;11.40;;;5.90;;
19509;SDS011;9896;42.486;26.506;2023-02-11T00:37:57;18.67;;;8.90;;
19509;SDS011;9896;42.486;26.506;2023-02-11T00:40:22;20.10;;;10.20;;
19509;SDS011;9896;42.486;26.506;2023-02-11T00:42:48;18.67;;;8.67;;
19509;SDS011;9896;42.486;26.506;2023-02-11T00:45:14;18.17;;;8.40;;
19509;SDS011;9896;42.486;26.506;2023-02-11T00:47:39;21.07;;;10.60;;
19509;SDS011;9896;42.486;26.506;2023-02-11T00:50:05;18.73;;;8.60;;
19509;SDS011;9896;42.486;26.506;2023-02-11T00:52:33;17.63;;;9.00;;
19509;SDS011;9896;42.486;26.506;2023-02-11T00:54:59;20.37;;;9.03;;
19509;SDS011;9896;42.486;26.506;2023-02-11T00:57:24;22.27;;;9.77;;
19509;SDS011;9896;42.486;26.506;2023-02-11T00:59:50;18.97;;;8.90;;
19509;SDS011;9896;42.486;26.506;2023-02-11T01:02:15;22.93;;;10.07;;
19509;SDS011;9896;42.486;26.506;2023-02-11T01:04:42;17.93;;;8.57;;
19509;SDS011;9896;42.486;26.506;2023-02-11T01:07:08;17.83;;;8.70;;
19509;SDS011;9896;42.486;26.506;2023-02-11T01:09:36;23.90;;;8.90;;
19509;SDS011;9896;42.486;26.506;2023-02-11T01:12:03;14.90;;;8.23;;
19509;SDS011;9896;42.486;26.506;2023-02-11T01:14:28;15.03;;;7.20;;
19509;SDS011;9896;42.486;26.506;2023-02-11T01:16:54;18.30;;;7.33;;
19509;SDS011;9896;42.486;26.506;2023-02-11T01:19:19;11.23;;;6.60;;
19509;SDS011;9896;42.486;26.506;2023-02-11T01:21:44;15.37;;;7.30;;
19509;SDS011;9896;42.486;26.506;2023-02-11T01:24:10;17.83;;;8.07;;
19509;SDS011;9896;42.486;26.506;2023-02-11T01:26:35;13.17;;;7.53;;
19509;SDS011;9896;42.486;26.506;2023-02-11T01:29:01;18.87;;;8.37;;
19509;SDS011;9896;42.486;26.506;2023-02-11T01:31:29;15.77;;;7.70;;
19509;SDS011;9896;42.486;26.506;2023-02-11T01:33:54;11.40;;;6.03;;
19509;SDS011;9896;42.486;26.506;2023-02-11T01:36:20;18.83;;;7.63;;
19509;SDS011;9896;42.486;26.506;2023-02-11T01:38:45;19.90;;;8.00;;
19509;SDS011;9896;42.486;26.506;2023-02-11T01:41:11;13.30;;;7.17;;
19509;SDS011;9896;42.486;26.506;2023-02-11T01:43:43;17.30;;;8.47;;
19509;SDS011;9896;42.486;26.506;2023-02-11T01:46:17;11.43;;;4.97;;
19509;SDS011;9896;42.486;26.506;2023-02-11T01:48:55;14.07;;;7.10;;
19509;SDS011;9896;42.486;26.506;2023-02-11T01:51:46;12.93;;;7.00;;
19509;SDS011;9896;42.486;26.506;2023-02-11T01:54:14;16.13;;;6.73;;
19509;SDS011;9896;42.486;26.506;2023-02-11T01:57:02;13.57;;;6.53;;
19509;SDS011;9896;42.486;26.506;2023-02-11T02:00:04;10.53;;;5.70;;
19509;SDS011;9896;42.486;26.506;2023-02-11T02:08:30;8.50;;;4.90;;
19509;SDS011;9896;42.486;26.506;2023-02-11T02:10:59;7.20;;;4.20;;
19509;SDS011;9896;42.486;26.506;2023-02-11T02:13:26;13.53;;;6.13;;
19509;SDS011;9896;42.486;26.506;2023-02-11T02:16:01;8.20;;;5.03;;
19509;SDS011;9896;42.486;26.506;2023-02-11T02:21:34;9.33;;;5.27;;
19509;SDS011;9896;42.486;26.506;2023-02-11T02:32:16;11.67;;;6.23;;
19509;SDS011;9896;42.486;26.506;2023-02-11T02:34:55;11.97;;;6.63;;
19509;SDS011;9896;42.486;26.506;2023-02-11T02:37:25;19.17;;;7.93;;
19509;SDS011;9896;42.486;26.506;2023-02-11T02:39:53;15.07;;;7.43;;
19509;SDS011;9896;42.486;26.506;2023-02-11T02:42:21;22.50;;;8.70;;
19509;SDS011;9896;42.486;26.506;2023-02-11T02:44:51;24.60;;;10.20;;
19509;SDS011;9896;42.486;26.506;2023-02-11T02:47:17;22.80;;;9.90;;
19509;SDS011;9896;42.486;26.506;2023-02-11T02:49:43;25.53;;;10.30;;
19509;SDS011;9896;42.486;26.506;2023-02-11T02:52:18;14.00;;;7.07;;
19509;SDS011;9896;42.486;26.506;2023-02-11T02:58:26;16.80;;;8.33;;
19509;SDS011;9896;42.486;26.506;2023-02-11T03:00:59;17.93;;;9.13;;
19509;SDS011;9896;42.486;26.506;2023-02-11T03:06:16;26.87;;;9.57;;
19509;SDS011;9896;42.486;26.506;2023-02-11T03:11:39;18.50;;;9.40;;
19509;SDS011;9896;42.486;26.506;2023-02-11T03:14:05;17.67;;;7.80;;
19509;SDS011;9896;42.486;26.506;2023-02-11T03:16:34;19.30;;;9.87;;
19509;SDS011;9896;42.486;26.506;2023-02-11T03:19:21;22.63;;;9.80;;
19509;SDS011;9896;42.486;26.506;2023-02-11T03:21:50;19.93;;;7.73;;
19509;SDS011;9896;42.486;26.506;2023-02-11T03:24:28;14.90;;;7.60;;
19509;SDS011;9896;42.486;26.506;2023-02-11T03:27:02;18.97;;;10.10;;
19509;SDS011;9896;42.486;26.506;2023-02-11T03:32:23;25.87;;;8.40;;
19509;SDS011;9896;42.486;26.506;2023-02-11T03:34:59;28.00;;;8.90;;
19509;SDS011;9896;42.486;26.506;2023-02-11T03:37:39;24.80;;;8.43;;
19509;SDS011;9896;42.486;26.506;2023-02-11T03:40:12;15.50;;;8.77;;
19509;SDS011;9896;42.486;26.506;2023-02-11T03:42:53;15.00;;;7.37;;
19509;SDS011;9896;42.486;26.506;2023-02-11T03:45:23;14.57;;;7.17;;
19509;SDS011;9896;42.486;26.506;2023-02-11T03:47:53;16.70;;;7.37;;
19509;SDS011;9896;42.486;26.506;2023-02-11T03:50:21;14.10;;;8.03;;
19509;SDS011;9896;42.486;26.506;2023-02-11T03:52:48;16.43;;;6.53;;
19509;SDS011;9896;42.486;26.506;2023-02-11T03:55:16;20.40;;;9.77;;
19509;SDS011;9896;42.486;26.506;2023-02-11T03:57:43;14.67;;;7.90;;
19509;SDS011;9896;42.486;26.506;2023-02-11T04:00:10;12.17;;;6.37;;
19509;SDS011;9896;42.486;26.506;2023-02-11T04:02:36;15.73;;;7.33;;
19509;SDS011;9896;42.486;26.506;2023-02-11T04:05:03;25.73;;;12.07;;
19509;SDS011;9896;42.486;26.506;2023-02-11T04:07:31;12.97;;;7.70;;
19509;SDS011;9896;42.486;26.506;2023-02-11T04:09:57;11.03;;;5.63;;
19509;SDS011;9896;42.486;26.506;2023-02-11T04:12:22;11.50;;;6.13;;
19509;SDS011;9896;42.486;26.506;2023-02-11T04:14:48;7.80;;;5.47;;
19509;SDS011;9896;42.486;26.506;2023-02-11T04:17:14;8.27;;;5.47;;
19509;SDS011;9896;42.486;26.506;2023-02-11T04:19:40;7.73;;;5.03;;
19509;SDS011;9896;42.486;26.506;2023-02-11T04:22:05;16.17;;;6.90;;
19509;SDS011;9896;42.486;26.506;2023-02-11T04:24:31;11.73;;;5.87;;
19509;SDS011;9896;42.486;26.506;2023-02-11T04:26:57;7.93;;;4.83;;
19509;SDS011;9896;42.486;26.506;2023-02-11T04:29:22;17.20;;;5.60;;
19509;SDS011;9896;42.486;26.506;2023-02-11T04:31:48;10.77;;;5.70;;
19509;SDS011;9896;42.486;26.506;2023-02-11T04:34:14;8.67;;;4.83;;
19509;SDS011;9896;42.486;26.506;2023-02-11T04:36:40;12.90;;;5.63;;
19509;SDS011;9896;42.486;26.506;2023-02-11T04:39:05;10.83;;;4.07;;
19509;SDS011;9896;42.486;26.506;2023-02-11T04:41:31;11.90;;;5.87;;
19509;SDS011;9896;42.486;26.506;2023-02-11T04:43:57;8.73;;;5.47;;
19509;SDS011;9896;42.486;26.506;2023-02-11T04:46:22;8.77;;;5.47;;
19509;SDS011;9896;42.486;26.506;2023-02-11T04:48:48;18.93;;;8.97;;
19509;SDS011;9896;42.486;26.506;2023-02-11T04:51:13;22.80;;;6.97;;
19509;SDS011;9896;42.486;26.506;2023-02-11T04:53:39;15.83;;;8.77;;
19509;SDS011;9896;42.486;26.506;2023-02-11T04:56:05;9.43;;;5.00;;
19509;SDS011;9896;42.486;26.506;2023-02-11T04:58:31;11.73;;;6.47;;
19509;SDS011;9896;42.486;26.506;2023-02-11T05:01:03;8.57;;;5.53;;
19509;SDS011;9896;42.486;26.506;2023-02-11T05:03:33;24.40;;;7.70;;
19509;SDS011;9896;42.486;26.506;2023-02-11T05:05:59;12.50;;;6.53;;
19509;SDS011;9896;42.486;26.506;2023-02-11T05:08:24;16.27;;;6.13;;
19509;SDS011;9896;42.486;26.506;2023-02-11T05:10:50;11.97;;;5.90;;
19509;SDS011;9896;42.486;26.506;2023-02-11T05:13:16;16.97;;;7.10;;
19509;SDS011;9896;42.486;26.506;2023-02-11T05:15:41;14.27;;;7.63;;
19509;SDS011;9896;42.486;26.506;2023-02-11T05:18:07;17.57;;;7.70;;
19509;SDS011;9896;42.486;26.506;2023-02-11T05:20:32;8.03;;;3.63;;
19509;SDS011;9896;42.486;26.506;2023-02-11T05:22:58;10.73;;;4.63;;
19509;SDS011;9896;42.486;26.506;2023-02-11T05:25:23;8.97;;;5.33;;
19509;SDS011;9896;42.486;26.506;2023-02-11T05:27:49;7.00;;;4.70;;
19509;SDS011;9896;42.486;26.506;2023-02-11T05:30:14;8.83;;;5.93;;
19509;SDS011;9896;42.486;26.506;2023-02-11T05:32:40;9.83;;;5.23;;
19509;SDS011;9896;42.486;26.506;2023-02-11T05:35:06;4.73;;;3.00;;
19509;SDS011;9896;42.486;26.506;2023-02-11T05:37:32;6.73;;;4.90;;
19509;SDS011;9896;42.486;26.506;2023-02-11T05:39:59;17.33;;;7.03;;
19509;SDS011;9896;42.486;26.506;2023-02-11T05:42:24;7.30;;;4.43;;
19509;SDS011;9896;42.486;26.506;2023-02-11T05:44:50;15.23;;;6.83;;
19509;SDS011;9896;42.486;26.506;2023-02-11T05:47:16;8.57;;;4.60;;
19509;SDS011;9896;42.486;26.506;2023-02-11T05:49:41;20.00;;;10.00;;
19509;SDS011;9896;42.486;26.506;2023-02-11T05:52:07;11.73;;;5.77;;
19509;SDS011;9896;42.486;26.506;2023-02-11T05:54:32;19.07;;;8.00;;
19509;SDS011;9896;42.486;26.506;2023-02-11T05:56:58;6.30;;;4.10;;
19509;SDS011;9896;42.486;26.506;2023-02-11T05:59:23;21.10;;;10.20;;
19509;SDS011;9896;42.486;26.506;2023-02-11T06:01:49;16.30;;;7.07;;
19509;SDS011;9896;42.486;26.506;2023-02-11T06:04:15;10.47;;;5.50;;
19509;SDS011;9896;42.486;26.506;2023-02-11T06:06:40;19.00;;;9.80;;
19509;SDS011;9896;42.486;26.506;2023-02-11T06:09:06;11.17;;;6.13;;
19509;SDS011;9896;42.486;26.506;2023-02-11T06:11:31;19.47;;;7.70;;
19509;SDS011;9896;42.486;26.506;2023-02-11T06:13:57;20.87;;;9.60;;
19509;SDS011;9896;42.486;26.506;2023-02-11T06:16:22;4.20;;;3.00;;
19509;SDS011;9896;42.486;26.506;2023-02-11T06:18:48;11.87;;;8.13;;
19509;SDS011;9896;42.486;26.506;2023-02-11T06:21:14;13.73;;;7.30;;
19509;SDS011;9896;42.486;26.506;2023-02-11T06:23:39;22.40;;;10.27;;
19509;SDS011;9896;42.486;26.506;2023-02-11T06:26:06;13.63;;;7.43;;
19509;SDS011;9896;42.486;26.506;2023-02-11T06:28:39;6.30;;;4.00;;
19509;SDS011;9896;42.486;26.506;2023-02-11T06:31:05;6.80;;;3.77;;
19509;SDS011;9896;42.486;26.506;2023-02-11T06:33:31;18.60;;;8.30;;
19509;SDS011;9896;42.486;26.506;2023-02-11T06:35:58;13.97;;;7.90;;
19509;SDS011;9896;42.486;26.506;2023-02-11T06:38:24;17.47;;;7.20;;
19509;SDS011;9896;42.486;26.506;2023-02-11T06:40:50;19.93;;;9.00;;
19509;SDS011;9896;42.486;26.506;2023-02-11T06:43:15;16.60;;;7.53;;
19509;SDS011;9896;42.486;26.506;2023-02-11T06:45:41;12.17;;;6.10;;
19509;SDS011;9896;42.486;26.506;2023-02-11T06:48:07;20.57;;;8.83;;
19509;SDS011;9896;42.486;26.506;2023-02-11T06:50:33;26.13;;;11.03;;
19509;SDS011;9896;42.486;26.506;2023-02-11T06:52:58;22.23;;;10.07;;
19509;SDS011;9896;42.486;26.506;2023-02-11T06:55:24;14.03;;;6.87;;
19509;SDS011;9896;42.486;26.506;2023-02-11T06:57:50;17.80;;;8.30;;
19509;SDS011;9896;42.486;26.506;2023-02-11T07:00:16;19.90;;;8.37;;
19509;SDS011;9896;42.486;26.506;2023-02-11T07:02:41;19.70;;;9.60;;
19509;SDS011;9896;42.486;26.506;2023-02-11T07:05:07;19.03;;;7.10;;
19509;SDS011;9896;42.486;26.506;2023-02-11T07:07:33;16.20;;;7.53;;
19509;SDS011;9896;42.486;26.506;2023-02-11T07:09:59;13.73;;;7.60;;
19509;SDS011;9896;42.486;26.506;2023-02-11T07:12:24;23.27;;;11.10;;
19509;SDS011;9896;42.486;26.506;2023-02-11T07:14:50;18.10;;;8.47;;
19509;SDS011;9896;42.486;26.506;2023-02-11T07:17:16;17.77;;;8.10;;
19509;SDS011;9896;42.486;26.506;2023-02-11T07:19:42;22.57;;;9.00;;
19509;SDS011;9896;42.486;26.506;2023-02-11T07:22:07;16.53;;;7.77;;
19509;SDS011;9896;42.486;26.506;2023-02-11T07:24:33;17.13;;;7.83;;
19509;SDS011;9896;42.486;26.506;2023-02-11T07:26:59;16.93;;;8.43;;
19509;SDS011;9896;42.486;26.506;2023-02-11T07:29:24;19.53;;;8.27;;
19509;SDS011;9896;42.486;26.506;2023-02-11T07:31:50;18.77;;;8.63;;
19509;SDS011;9896;42.486;26.506;2023-02-11T07:34:15;14.20;;;8.27;;
19509;SDS011;9896;42.486;26.506;2023-02-11T07:36:41;15.00;;;7.83;;
19509;SDS011;9896;42.486;26.506;2023-02-11T07:39:07;19.27;;;9.17;;
19509;SDS011;9896;42.486;26.506;2023-02-11T07:41:33;14.20;;;7.80;;
19509;SDS011;9896;42.486;26.506;2023-02-11T07:44:01;16.00;;;7.73;;
19509;SDS011;9896;42.486;26.506;2023-02-11T07:46:27;18.43;;;8.97;;
19509;SDS011;9896;42.486;26.506;2023-02-11T07:48:53;27.23;;;12.33;;
19509;SDS011;9896;42.486;26.506;2023-02-11T07:51:24;22.03;;;11.20;;
19509;SDS011;9896;42.486;26.506;2023-02-11T07:53:51;24.97;;;11.73;;
19509;SDS011;9896;42.486;26.506;2023-02-11T07:56:17;27.10;;;11.87;;
19509;SDS011;9896;42.486;26.506;2023-02-11T07:58:47;26.53;;;11.73;;
19509;SDS011;9896;42.486;26.506;2023-02-11T08:01:14;30.77;;;13.57;;
19509;SDS011;9896;42.486;26.506;2023-02-11T08:03:42;21.83;;;11.47;;
19509;SDS011;9896;42.486;26.506;2023-02-11T08:06:13;25.00;;;11.23;;
19509;SDS011;9896;42.486;26.506;2023-02-11T08:08:40;33.07;;;12.53;;
19509;SDS011;9896;42.486;26.506;2023-02-11T08:11:06;25.47;;;12.47;;
19509;SDS011;9896;42.486;26.506;2023-02-11T08:13:39;32.13;;;13.53;;
19509;SDS011;9896;42.486;26.506;2023-02-11T08:16:06;25.53;;;12.40;;
19509;SDS011;9896;42.486;26.506;2023-02-11T08:18:32;26.43;;;11.20;;
19509;SDS011;9896;42.486;26.506;2023-02-11T08:21:08;19.40;;;8.93;;
19509;SDS011;9896;42.486;26.506;2023-02-11T08:23:38;28.10;;;11.87;;
19509;SDS011;9896;42.486;26.506;2023-02-11T08:26:06;22.93;;;11.27;;
19509;SDS011;9896;42.486;26.506;2023-02-11T08:28:34;19.83;;;11.27;;
19509;SDS011;9896;42.486;26.506;2023-02-11T08:31:05;19.83;;;11.20;;
19509;SDS011;9896;42.486;26.506;2023-02-11T08:33:42;22.83;;;11.57;;
19509;SDS011;9896;42.486;26.506;2023-02-11T08:36:09;23.53;;;10.43;;
19509;SDS011;9896;42.486;26.506;2023-02-11T08:38:45;19.43;;;9.80;;
19509;SDS011;9896;42.486;26.506;2023-02-11T08:41:11;20.47;;;10.20;;
19509;SDS011;9896;42.486;26.506;2023-02-11T08:43:43;19.93;;;10.20;;
19509;SDS011;9896;42.486;26.506;2023-02-11T08:46:13;26.83;;;12.30;;
19509;SDS011;9896;42.486;26.506;2023-02-11T08:48:40;18.00;;;10.30;;
19509;SDS011;9896;42.486;26.506;2023-02-11T08:51:07;30.20;;;13.10;;
19509;SDS011;9896;42.486;26.506;2023-02-11T08:53:35;22.33;;;10.70;;
19509;SDS011;9896;42.486;26.506;2023-02-11T08:56:01;23.37;;;10.77;;
19509;SDS011;9896;42.486;26.506;2023-02-11T08:58:26;19.40;;;9.87;;
19509;SDS011;9896;42.486;26.506;2023-02-11T09:00:52;23.40;;;11.47;;
19509;SDS011;9896;42.486;26.506;2023-02-11T09:03:18;18.73;;;8.57;;
19509;SDS011;9896;42.486;26.506;2023-02-11T09:05:44;12.43;;;8.07;;
19509;SDS011;9896;42.486;26.506;2023-02-11T09:08:11;14.53;;;8.00;;
19509;SDS011;9896;42.486;26.506;2023-02-11T09:10:37;19.97;;;9.03;;
19509;SDS011;9896;42.486;26.506;2023-02-11T09:13:03;16.20;;;7.83;;
19509;SDS011;9896;42.486;26.506;2023-02-11T09:15:29;16.20;;;8.73;;
19509;SDS011;9896;42.486;26.506;2023-02-11T09:17:55;13.03;;;7.70;;
19509;SDS011;9896;42.486;26.506;2023-02-11T09:20:21;8.27;;;4.77;;
19509;SDS011;9896;42.486;26.506;2023-02-11T09:22:47;13.87;;;6.27;;
19509;SDS011;9896;42.486;26.506;2023-02-11T09:25:13;11.07;;;5.83;;
19509;SDS011;9896;42.486;26.506;2023-02-11T09:27:38;11.33;;;5.87;;
19509;SDS011;9896;42.486;26.506;2023-02-11T09:30:04;8.77;;;4.97;;
19509;SDS011;9896;42.486;26.506;2023-02-11T09:32:30;9.97;;;5.27;;
19509;SDS011;9896;42.486;26.506;2023-02-11T09:34:55;17.17;;;6.70;;
19509;SDS011;9896;42.486;26.506;2023-02-11T09:37:21;11.10;;;5.57;;
19509;SDS011;9896;42.486;26.506;2023-02-11T09:39:47;9.37;;;5.23;;
19509;SDS011;9896;42.486;26.506;2023-02-11T09:44:58;10.93;;;5.07;;
19509;SDS011;9896;42.486;26.506;2023-02-11T09:47:33;8.57;;;5.00;;
19509;SDS011;9896;42.486;26.506;2023-02-11T09:50:06;12.90;;;6.57;;
19509;SDS011;9896;42.486;26.506;2023-02-11T09:55:14;10.97;;;5.43;;
19509;SDS011;9896;42.486;26.506;2023-02-11T09:57:50;8.20;;;5.67;;
19509;SDS011;9896;42.486;26.506;2023-02-11T10:08:47;10.33;;;6.13;;
19509;SDS011;9896;42.486;26.506;2023-02-11T10:10:59;10.03;;;6.30;;
19509;SDS011;9896;42.486;26.506;2023-02-11T10:19:08;9.97;;;5.00;;
19509;SDS011;9896;42.486;26.506;2023-02-11T10:21:50;10.97;;;5.50;;
19509;SDS011;9896;42.486;26.506;2023-02-11T10:24:37;8.73;;;4.87;;
19509;SDS011;9896;42.486;26.506;2023-02-11T10:27:13;11.40;;;5.30;;
19509;SDS011;9896;42.486;26.506;2023-02-11T10:29:50;13.07;;;5.80;;
19509;SDS011;9896;42.486;26.506;2023-02-11T10:32:29;8.17;;;4.60;;
19509;SDS011;9896;42.486;26.506;2023-02-11T10:34:57;9.33;;;5.20;;
19509;SDS011;9896;42.486;26.506;2023-02-11T10:37:27;9.43;;;4.93;;
19509;SDS011;9896;42.486;26.506;2023-02-11T10:39:52;12.30;;;5.90;;
19509;SDS011;9896;42.486;26.506;2023-02-11T10:42:18;9.77;;;5.93;;
19509;SDS011;9896;42.486;26.506;2023-02-11T10:44:55;10.83;;;6.13;;
19509;SDS011;9896;42.486;26.506;2023-02-11T10:47:26;9.77;;;5.10;;
19509;SDS011;9896;42.486;26.506;2023-02-11T10:49:54;10.47;;;5.13;;
19509;SDS011;9896;42.486;26.506;2023-02-11T10:52:27;13.83;;;6.37;;
19509;SDS011;9896;42.486;26.506;2023-02-11T10:54:55;8.97;;;5.07;;
19509;SDS011;9896;42.486;26.506;2023-02-11T10:57:37;10.63;;;5.40;;
19509;SDS011;9896;42.486;26.506;2023-02-11T11:03:01;9.90;;;5.53;;
19509;SDS011;9896;42.486;26.506;2023-02-11T11:05:30;11.60;;;5.83;;
19509;SDS011;9896;42.486;26.506;2023-02-11T11:07:59;9.50;;;5.57;;
19509;SDS011;9896;42.486;26.506;2023-02-11T11:13:29;9.10;;;5.20;;
19509;SDS011;9896;42.486;26.506;2023-02-11T11:18:37;10.03;;;5.80;;
19509;SDS011;9896;42.486;26.506;2023-02-11T11:21:11;11.17;;;5.70;;
19509;SDS011;9896;42.486;26.506;2023-02-11T11:23:37;11.20;;;5.23;;
19509;SDS011;9896;42.486;26.506;2023-02-11T11:26:10;15.10;;;5.53;;
19509;SDS011;9896;42.486;26.506;2023-02-11T11:28:56;10.60;;;5.53;;
19509;SDS011;9896;42.486;26.506;2023-02-11T11:31:44;11.33;;;6.13;;
19509;SDS011;9896;42.486;26.506;2023-02-11T11:37:25;7.43;;;4.10;;
19509;SDS011;9896;42.486;26.506;2023-02-11T11:39:57;8.67;;;5.07;;
19509;SDS011;9896;42.486;26.506;2023-02-11T11:42:30;9.87;;;4.87;;
19509;SDS011;9896;42.486;26.506;2023-02-11T11:50:19;9.93;;;5.87;;
19509;SDS011;9896;42.486;26.506;2023-02-11T11:53:06;11.07;;;5.13;;
19509;SDS011;9896;42.486;26.506;2023-02-11T11:58:17;12.23;;;6.07;;
19509;SDS011;9896;42.486;26.506;2023-02-11T12:03:38;9.97;;;5.73;;
19509;SDS011;9896;42.486;26.506;2023-02-11T12:06:32;10.17;;;5.13;;
19509;SDS011;9896;42.486;26.506;2023-02-11T12:14:42;11.07;;;5.20;;
19509;SDS011;9896;42.486;26.506;2023-02-11T12:36:43;9.80;;;4.70;;
19509;SDS011;9896;42.486;26.506;2023-02-11T12:39:50;13.10;;;5.70;;
19509;SDS011;9896;42.486;26.506;2023-02-11T12:42:36;11.67;;;6.23;;
19509;SDS011;9896;42.486;26.506;2023-02-11T12:45:41;10.17;;;5.37;;
19509;SDS011;9896;42.486;26.506;2023-02-11T12:56:33;9.37;;;5.50;;
19509;SDS011;9896;42.486;26.506;2023-02-11T12:59:06;9.00;;;5.27;;
19509;SDS011;9896;42.486;26.506;2023-02-11T13:01:41;9.27;;;4.63;;
19509;SDS011;9896;42.486;26.506;2023-02-11T13:06:58;6.87;;;4.47;;
19509;SDS011;9896;42.486;26.506;2023-02-11T13:09:31;10.80;;;4.47;;
19509;SDS011;9896;42.486;26.506;2023-02-11T13:12:03;9.30;;;4.83;;
19509;SDS011;9896;42.486;26.506;2023-02-11T13:14:50;14.60;;;6.07;;
19509;SDS011;9896;42.486;26.506;2023-02-11T13:17:21;12.60;;;5.53;;
19509;SDS011;9896;42.486;26.506;2023-02-11T13:19:57;11.03;;;5.07;;
19509;SDS011;9896;42.486;26.506;2023-02-11T13:22:31;7.37;;;4.43;;
19509;SDS011;9896;42.486;26.506;2023-02-11T13:25:09;11.00;;;4.67;;
19509;SDS011;9896;42.486;26.506;2023-02-11T13:30:23;9.93;;;4.97;;
19509;SDS011;9896;42.486;26.506;2023-02-11T13:40:57;10.37;;;5.50;;
19509;SDS011;9896;42.486;26.506;2023-02-11T13:43:32;9.67;;;5.00;;
19509;SDS011;9896;42.486;26.506;2023-02-11T13:46:20;10.23;;;5.40;;
19509;SDS011;9896;42.486;26.506;2023-02-11T13:48:49;9.83;;;5.40;;
19509;SDS011;9896;42.486;26.506;2023-02-11T13:51:18;10.17;;;5.20;;
19509;SDS011;9896;42.486;26.506;2023-02-11T13:54:01;12.27;;;5.93;;
19509;SDS011;9896;42.486;26.506;2023-02-11T13:56:31;11.90;;;6.63;;
19509;SDS011;9896;42.486;26.506;2023-02-11T13:58:59;9.73;;;5.60;;
19509;SDS011;9896;42.486;26.506;2023-02-11T14:04:31;8.67;;;5.23;;
19509;SDS011;9896;42.486;26.506;2023-02-11T14:16:09;15.73;;;6.77;;
19509;SDS011;9896;42.486;26.506;2023-02-11T14:26:41;10.80;;;5.57;;
19509;SDS011;9896;42.486;26.506;2023-02-11T14:40:28;13.00;;;6.80;;
19509;SDS011;9896;42.486;26.506;2023-02-11T14:43:45;12.37;;;5.70;;
19509;SDS011;9896;42.486;26.506;2023-02-11T14:45:55;9.43;;;5.00;;
19509;SDS011;9896;42.486;26.506;2023-02-11T14:48:42;11.07;;;5.97;;
19509;SDS011;9896;42.486;26.506;2023-02-11T14:51:30;11.10;;;5.67;;
19509;SDS011;9896;42.486;26.506;2023-02-11T14:53:59;12.83;;;5.80;;
19509;SDS011;9896;42.486;26.506;2023-02-11T14:56:35;12.10;;;6.13;;
19509;SDS011;9896;42.486;26.506;2023-02-11T14:59:01;8.23;;;5.20;;
19509;SDS011;9896;42.486;26.506;2023-02-11T15:01:33;10.73;;;5.53;;
19509;SDS011;9896;42.486;26.506;2023-02-11T15:04:05;9.07;;;5.60;;
19509;SDS011;9896;42.486;26.506;2023-02-11T15:06:47;8.70;;;5.43;;
19509;SDS011;9896;42.486;26.506;2023-02-11T15:09:16;15.90;;;6.40;;
19509;SDS011;9896;42.486;26.506;2023-02-11T15:11:59;17.20;;;7.40;;
19509;SDS011;9896;42.486;26.506;2023-02-11T15:17:00;12.87;;;7.07;;
19509;SDS011;9896;42.486;26.506;2023-02-11T15:19:32;10.70;;;6.30;;
19509;SDS011;9896;42.486;26.506;2023-02-11T15:22:00;8.40;;;5.40;;
19509;SDS011;9896;42.486;26.506;2023-02-11T15:24:31;10.93;;;6.23;;
19509;SDS011;9896;42.486;26.506;2023-02-11T15:27:00;9.83;;;5.43;;
19509;SDS011;9896;42.486;26.506;2023-02-11T15:34:40;16.60;;;8.00;;
19509;SDS011;9896;42.486;26.506;2023-02-11T15:37:05;18.77;;;8.87;;
19509;SDS011;9896;42.486;26.506;2023-02-11T15:39:39;19.43;;;10.40;;
19509;SDS011;9896;42.486;26.506;2023-02-11T15:42:16;12.80;;;7.37;;
19509;SDS011;9896;42.486;26.506;2023-02-11T15:47:39;29.10;;;14.70;;
19509;SDS011;9896;42.486;26.506;2023-02-11T15:50:06;21.67;;;11.10;;
19509;SDS011;9896;42.486;26.506;2023-02-11T15:52:43;28.83;;;11.60;;
19509;SDS011;9896;42.486;26.506;2023-02-11T15:55:11;20.90;;;10.77;;
19509;SDS011;9896;42.486;26.506;2023-02-11T15:57:46;27.00;;;13.77;;
19509;SDS011;9896;42.486;26.506;2023-02-11T16:00:17;36.73;;;19.03;;
19509;SDS011;9896;42.486;26.506;2023-02-11T16:02:45;43.93;;;21.40;;
19509;SDS011;9896;42.486;26.506;2023-02-11T16:05:26;49.90;;;22.47;;
19509;SDS011;9896;42.486;26.506;2023-02-11T16:07:55;22.07;;;11.10;;
19509;SDS011;9896;42.486;26.506;2023-02-11T16:10:26;18.43;;;8.43;;
19509;SDS011;9896;42.486;26.506;2023-02-11T16:21:15;21.30;;;10.47;;
19509;SDS011;9896;42.486;26.506;2023-02-11T16:23:48;26.83;;;13.00;;
19509;SDS011;9896;42.486;26.506;2023-02-11T16:29:04;38.50;;;17.43;;
19509;SDS011;9896;42.486;26.506;2023-02-11T16:31:51;36.50;;;16.33;;
19509;SDS011;9896;42.486;26.506;2023-02-11T16:34:19;14.43;;;7.23;;
19509;SDS011;9896;42.486;26.506;2023-02-11T16:36:47;10.73;;;5.90;;
19509;SDS011;9896;42.486;26.506;2023-02-11T16:39:14;17.07;;;7.10;;
19509;SDS011;9896;42.486;26.506;2023-02-11T16:41:41;17.37;;;9.47;;
19509;SDS011;9896;42.486;26.506;2023-02-11T16:44:06;25.87;;;10.37;;
19509;SDS011;9896;42.486;26.506;2023-02-11T16:46:32;14.90;;;7.10;;
19509;SDS011;9896;42.486;26.506;2023-02-11T16:49:00;16.80;;;7.50;;
19509;SDS011;9896;42.486;26.506;2023-02-11T16:51:36;16.77;;;7.93;;
19509;SDS011;9896;42.486;26.506;2023-02-11T16:54:03;34.07;;;11.10;;
19509;SDS011;9896;42.486;26.506;2023-02-11T16:56:29;29.73;;;12.27;;
19509;SDS011;9896;42.486;26.506;2023-02-11T16:58:54;17.00;;;8.60;;
19509;SDS011;9896;42.486;26.506;2023-02-11T17:01:19;18.17;;;7.60;;
19509;SDS011;9896;42.486;26.506;2023-02-11T17:03:45;14.30;;;7.53;;
19509;SDS011;9896;42.486;26.506;2023-02-11T17:06:11;25.57;;;10.00;;
19509;SDS011;9896;42.486;26.506;2023-02-11T17:08:38;33.37;;;14.70;;
19509;SDS011;9896;42.486;26.506;2023-02-11T17:11:04;50.57;;;17.60;;
19509;SDS011;9896;42.486;26.506;2023-02-11T17:13:29;50.43;;;21.57;;
19509;SDS011;9896;42.486;26.506;2023-02-11T17:15:55;49.30;;;19.50;;
19509;SDS011;9896;42.486;26.506;2023-02-11T17:18:20;52.90;;;21.70;;
19509;SDS011;9896;42.486;26.506;2023-02-11T17:20:46;71.40;;;28.23;;
19509;SDS011;9896;42.486;26.506;2023-02-11T17:23:11;52.67;;;20.30;;
19509;SDS011;9896;42.486;26.506;2023-02-11T17:25:37;61.80;;;24.00;;
19509;SDS011;9896;42.486;26.506;2023-02-11T17:28:03;49.60;;;19.70;;
19509;SDS011;9896;42.486;26.506;2023-02-11T17:30:30;40.17;;;17.53;;
19509;SDS011;9896;42.486;26.506;2023-02-11T17:32:56;30.53;;;13.37;;
19509;SDS011;9896;42.486;26.506;2023-02-11T17:35:21;26.83;;;11.40;;
19509;SDS011;9896;42.486;26.506;2023-02-11T17:37:47;32.77;;;14.57;;